createdAt,value
2016-11-18T00:00:06.623Z,992.15
2016-11-18T00:00:47.280Z,992.16
2016-11-18T00:01:27.922Z,992.13
2016-11-18T00:02:08.649Z,992.1
2016-11-18T00:02:49.260Z,992.09
2016-11-18T00:03:30.090Z,992.17
2016-11-18T00:04:10.722Z,992.09
2016-11-18T00:04:51.507Z,992.08
2016-11-18T00:05:32.141Z,992.2
2016-11-18T00:06:12.791Z,992.07
2016-11-18T00:06:53.472Z,992.19
2016-11-18T00:07:34.101Z,992.03
2016-11-18T00:08:14.796Z,992.04
2016-11-18T00:08:55.389Z,992.05
2016-11-18T00:09:35.989Z,992.05
2016-11-18T00:10:16.685Z,992.06
2016-11-18T00:10:57.314Z,992.02
2016-11-18T00:11:38.035Z,992.03
2016-11-18T00:12:18.669Z,992.03
2016-11-18T00:12:59.360Z,992.02
2016-11-18T00:13:39.945Z,992.02
2016-11-18T00:14:20.509Z,992.23
2016-11-18T00:15:01.121Z,992.06
2016-11-18T00:15:41.692Z,991.99
2016-11-18T00:16:22.268Z,992.02
2016-11-18T00:17:03.015Z,991.95
2016-11-18T00:17:43.583Z,992.02
2016-11-18T00:18:24.262Z,992
2016-11-18T00:19:04.952Z,991.96
2016-11-18T00:19:45.586Z,992.09
2016-11-18T00:20:26.271Z,991.96
2016-11-18T00:21:06.932Z,992.02
2016-11-18T00:21:47.512Z,992.04
2016-11-18T00:22:28.091Z,992.01
2016-11-18T00:23:08.763Z,991.98
2016-11-18T00:23:50.184Z,992.01
2016-11-18T00:24:30.882Z,991.96
2016-11-18T00:25:11.422Z,991.92
2016-11-18T00:25:52.142Z,991.93
2016-11-18T00:26:32.770Z,991.98
2016-11-18T00:27:13.386Z,991.85
2016-11-18T00:27:53.991Z,991.92
2016-11-18T00:28:34.608Z,991.87
2016-11-18T00:29:15.335Z,991.85
2016-11-18T00:29:55.955Z,991.77
2016-11-18T00:30:36.631Z,992.02
2016-11-18T00:31:17.280Z,991.82
2016-11-18T00:31:57.963Z,991.74
2016-11-18T00:32:38.583Z,991.74
2016-11-18T00:33:19.221Z,991.82
2016-11-18T00:33:59.853Z,991.94
2016-11-18T00:34:40.485Z,991.69
2016-11-18T00:35:21.144Z,991.83
2016-11-18T00:36:01.793Z,991.69
2016-11-18T00:36:42.493Z,991.65
2016-11-18T00:37:23.137Z,991.69
2016-11-18T00:38:03.927Z,991.64
2016-11-18T00:38:44.514Z,991.64
2016-11-18T00:39:25.223Z,991.66
2016-11-18T00:40:05.893Z,991.64
2016-11-18T00:40:46.653Z,991.7
2016-11-18T00:41:27.273Z,991.64
2016-11-18T00:42:08.068Z,991.65
2016-11-18T00:42:48.697Z,991.63
2016-11-18T00:43:29.333Z,991.96
2016-11-18T00:44:10.002Z,991.64
2016-11-18T00:44:50.584Z,991.57
2016-11-18T00:45:31.314Z,991.62
2016-11-18T00:46:11.930Z,991.56
2016-11-18T00:46:52.548Z,991.59
2016-11-18T00:47:33.232Z,991.85
2016-11-18T00:48:13.948Z,991.58
2016-11-18T00:48:55.447Z,991.57
2016-11-18T00:49:35.231Z,991.51
2016-11-18T00:50:16.006Z,991.52
2016-11-18T00:50:56.621Z,991.49
2016-11-18T00:51:37.302Z,991.47
2016-11-18T00:52:18.053Z,991.63
2016-11-18T00:52:58.710Z,991.56
2016-11-18T00:53:39.394Z,991.44
2016-11-18T00:54:20.026Z,991.56
2016-11-18T00:55:00.618Z,991.42
2016-11-18T00:55:41.222Z,991.57
2016-11-18T00:56:21.894Z,991.55
2016-11-18T00:57:02.474Z,991.55
2016-11-18T00:57:43.113Z,991.4
2016-11-18T00:58:23.686Z,991.45
2016-11-18T00:59:04.323Z,991.43
2016-11-18T00:59:44.985Z,991.48
2016-11-18T01:00:25.714Z,991.34
2016-11-18T01:01:06.693Z,991.42
2016-11-18T01:01:47.559Z,991.54
2016-11-18T01:02:28.318Z,991.44
2016-11-18T01:03:09.087Z,991.46
2016-11-18T01:03:49.861Z,991.39
2016-11-18T01:04:30.733Z,991.29
2016-11-18T01:05:11.497Z,991.41
2016-11-18T01:05:52.269Z,991.36
2016-11-18T01:06:33.236Z,991.32
2016-11-18T01:07:14.099Z,991.24
2016-11-18T01:07:54.755Z,991.26
2016-11-18T01:08:35.570Z,991.14
2016-11-18T01:09:16.270Z,991.23
2016-11-18T01:12:25.417Z,991.09
2016-11-18T01:13:10.431Z,991.17
2016-11-18T01:13:54.891Z,991.29
2016-11-18T01:14:35.867Z,991.15
2016-11-18T01:15:17.255Z,991.12
2016-11-18T01:15:58.755Z,991.13
2016-11-18T01:16:41.429Z,991.16
2016-11-18T01:17:22.617Z,991.12
2016-11-18T01:18:03.485Z,991.12
2016-11-18T01:18:44.560Z,991.09
2016-11-18T01:19:25.574Z,991.02
2016-11-18T01:20:06.539Z,991.18
2016-11-18T01:20:47.462Z,991.09
2016-11-18T01:21:28.275Z,991.07
2016-11-18T01:22:09.525Z,991.07
2016-11-18T01:22:50.599Z,991.18
2016-11-18T01:23:31.521Z,991.02
2016-11-18T01:24:12.444Z,991.05
2016-11-18T01:24:54.157Z,991.12
2016-11-18T01:25:37.708Z,991.04
2016-11-18T01:26:18.673Z,991.09
2016-11-18T01:26:59.401Z,991.05
2016-11-18T01:27:40.280Z,991.03
2016-11-18T01:28:21.305Z,991.11
2016-11-18T01:29:02.225Z,991.02
2016-11-18T01:29:43.167Z,991.02
2016-11-18T01:30:24.052Z,991.03
2016-11-18T01:31:05.008Z,991.06
2016-11-18T01:31:45.860Z,991.09
2016-11-18T01:32:26.807Z,991.05
2016-11-18T01:33:07.654Z,991.02
2016-11-18T01:33:48.543Z,991.04
2016-11-18T01:34:29.559Z,991.13
2016-11-18T01:35:10.742Z,991.06
2016-11-18T01:35:51.638Z,991.01
2016-11-18T01:36:33.336Z,991.04
2016-11-18T01:37:14.313Z,991.02
2016-11-18T01:37:55.332Z,991.02
2016-11-18T01:38:36.343Z,990.96
2016-11-18T01:39:17.475Z,991.01
2016-11-18T01:39:58.394Z,991.18
2016-11-18T01:40:39.384Z,991.01
2016-11-18T01:41:20.396Z,991.01
2016-11-18T01:42:01.463Z,990.94
2016-11-18T01:42:42.436Z,990.9
2016-11-18T01:43:23.443Z,990.91
2016-11-18T01:44:04.555Z,991.21
2016-11-18T01:44:45.463Z,990.89
2016-11-18T01:45:26.403Z,990.88
2016-11-18T01:46:07.384Z,990.9
2016-11-18T01:46:48.403Z,990.88
2016-11-18T01:47:29.448Z,990.89
2016-11-18T01:48:10.525Z,990.88
2016-11-18T01:48:51.547Z,990.75
2016-11-18T01:49:32.602Z,990.84
2016-11-18T01:50:13.552Z,990.68
2016-11-18T01:50:54.420Z,990.75
2016-11-18T01:51:35.360Z,990.76
2016-11-18T01:52:16.344Z,990.83
2016-11-18T01:52:57.444Z,990.7
2016-11-18T01:53:38.572Z,990.65
2016-11-18T01:54:19.570Z,990.6
2016-11-18T01:55:00.940Z,990.68
2016-11-18T01:55:42.113Z,990.61
2016-11-18T01:56:23.320Z,990.67
2016-11-18T01:57:04.456Z,990.76
2016-11-18T01:57:45.539Z,990.71
2016-11-18T01:58:26.599Z,990.77
2016-11-18T01:59:07.815Z,990.69
2016-11-18T01:59:48.938Z,990.76
2016-11-18T02:00:29.978Z,990.93
2016-11-18T02:01:10.929Z,990.69
2016-11-18T02:01:51.844Z,990.72
2016-11-18T02:02:33.077Z,990.51
2016-11-18T02:03:14.542Z,990.68
2016-11-18T02:03:55.757Z,990.58
2016-11-18T02:04:37.084Z,990.57
2016-11-18T02:05:18.370Z,990.61
2016-11-18T02:05:59.520Z,990.53
2016-11-18T02:06:40.571Z,990.63
2016-11-18T02:07:21.667Z,990.55
2016-11-18T02:08:02.713Z,990.48
2016-11-18T02:08:43.635Z,990.44
2016-11-18T02:09:24.667Z,990.33
2016-11-18T02:10:05.747Z,990.51
2016-11-18T02:10:46.725Z,990.35
2016-11-18T02:11:27.856Z,990.51
2016-11-18T02:12:08.951Z,990.28
2016-11-18T02:12:50.070Z,990.26
2016-11-18T02:13:31.080Z,990.25
2016-11-18T02:14:12.124Z,990.24
2016-11-18T02:14:53.209Z,990.22
2016-11-18T02:15:34.183Z,990.18
2016-11-18T02:16:15.450Z,990.15
2016-11-18T02:16:56.557Z,990.13
2016-11-18T02:17:37.768Z,989.98
2016-11-18T02:18:18.755Z,990.08
2016-11-18T02:18:59.840Z,990.06
2016-11-18T02:19:40.980Z,990.07
2016-11-18T02:20:22.003Z,990.08
2016-11-18T02:21:03.036Z,990.12
2016-11-18T02:21:44.186Z,990.1
2016-11-18T02:22:26.110Z,990.11
2016-11-18T02:23:06.482Z,989.96
2016-11-18T02:23:47.499Z,989.98
2016-11-18T02:24:28.636Z,989.99
2016-11-18T02:25:09.649Z,989.92
2016-11-18T02:25:50.749Z,990.08
2016-11-18T02:26:31.967Z,989.91
2016-11-18T02:27:13.344Z,989.91
2016-11-18T02:27:54.331Z,989.82
2016-11-18T02:28:35.362Z,989.85
2016-11-18T02:29:16.445Z,989.9
2016-11-18T02:29:57.401Z,989.86
2016-11-18T02:30:38.404Z,990
2016-11-18T02:31:19.305Z,989.79
2016-11-18T02:32:00.401Z,989.83
2016-11-18T02:32:41.400Z,989.74
2016-11-18T02:33:22.206Z,989.85
2016-11-18T02:34:03.584Z,989.81
2016-11-18T02:34:44.820Z,989.72
2016-11-18T02:35:25.804Z,989.94
2016-11-18T02:36:07.014Z,989.81
2016-11-18T02:36:48.259Z,989.75
2016-11-18T02:37:29.500Z,989.69
2016-11-18T02:38:10.607Z,989.76
2016-11-18T02:38:51.604Z,989.73
2016-11-18T02:39:32.798Z,989.74
2016-11-18T02:40:13.997Z,989.71
2016-11-18T02:40:55.126Z,989.75
2016-11-18T02:41:36.155Z,989.57
2016-11-18T02:42:17.074Z,989.54
2016-11-18T02:42:58.155Z,989.59
2016-11-18T02:43:39.221Z,989.48
2016-11-18T02:44:20.423Z,989.47
2016-11-18T02:45:01.465Z,989.45
2016-11-18T02:45:42.575Z,989.5
2016-11-18T02:46:23.707Z,989.58
2016-11-18T02:47:04.962Z,989.47
2016-11-18T02:47:46.109Z,989.44
2016-11-18T02:48:27.087Z,989.42
2016-11-18T02:49:08.348Z,989.45
2016-11-18T02:49:49.436Z,989.42
2016-11-18T02:50:30.363Z,989.52
2016-11-18T02:51:11.273Z,989.44
2016-11-18T02:51:52.203Z,989.34
2016-11-18T02:52:33.098Z,989.47
2016-11-18T02:53:14.145Z,989.49
2016-11-18T02:53:54.946Z,989.69
2016-11-18T02:54:35.954Z,989.4
2016-11-18T02:55:16.957Z,989.4
2016-11-18T02:55:58.063Z,989.54
2016-11-18T02:56:39.131Z,989.26
2016-11-18T02:57:20.286Z,989.28
2016-11-18T02:58:01.357Z,989.31
2016-11-18T02:58:42.426Z,989.31
2016-11-18T02:59:23.604Z,989.24
2016-11-18T03:00:04.610Z,989.25
2016-11-18T03:00:45.626Z,989.26
2016-11-18T03:01:26.625Z,989.19
2016-11-18T03:02:07.593Z,989.22
2016-11-18T03:02:48.540Z,989.18
2016-11-18T03:03:29.470Z,989.2
2016-11-18T03:04:10.518Z,989.32
2016-11-18T03:04:52.293Z,989.18
2016-11-18T03:05:33.475Z,989.12
2016-11-18T03:06:15.490Z,989.2
2016-11-18T03:06:56.586Z,989.22
2016-11-18T03:07:37.843Z,989.03
2016-11-18T03:08:18.948Z,989.07
2016-11-18T03:08:59.897Z,988.97
2016-11-18T03:09:41.886Z,988.9
2016-11-18T03:10:23.111Z,988.91
2016-11-18T03:11:04.394Z,988.97
2016-11-18T03:11:45.805Z,988.86
2016-11-18T03:12:26.919Z,988.88
2016-11-18T03:13:07.948Z,989.06
2016-11-18T03:13:48.962Z,988.86
2016-11-18T03:14:30.030Z,989.05
2016-11-18T03:15:11.037Z,988.82
2016-11-18T03:15:52.129Z,988.92
2016-11-18T03:16:33.191Z,988.88
2016-11-18T03:17:14.120Z,988.84
2016-11-18T03:17:55.261Z,988.76
2016-11-18T03:18:36.279Z,988.74
2016-11-18T03:19:17.388Z,988.76
2016-11-18T03:19:58.393Z,988.79
2016-11-18T03:20:39.458Z,988.96
2016-11-18T03:21:20.544Z,988.79
2016-11-18T03:22:01.385Z,988.77
2016-11-18T03:22:42.407Z,988.75
2016-11-18T03:23:23.465Z,988.79
2016-11-18T03:24:04.488Z,988.84
2016-11-18T03:24:45.472Z,988.76
2016-11-18T03:25:26.604Z,988.88
2016-11-18T03:26:07.645Z,988.73
2016-11-18T03:26:48.668Z,988.71
2016-11-18T03:27:29.529Z,988.96
2016-11-18T03:28:10.680Z,988.86
2016-11-18T03:28:51.602Z,988.68
2016-11-18T03:29:32.819Z,988.59
2016-11-18T03:30:14.195Z,988.63
2016-11-18T03:30:55.149Z,988.7
2016-11-18T03:31:36.231Z,988.68
2016-11-18T03:32:17.224Z,988.6
2016-11-18T03:32:58.211Z,988.55
2016-11-18T03:33:39.219Z,988.69
2016-11-18T03:34:20.406Z,988.72
2016-11-18T03:35:01.417Z,988.63
2016-11-18T03:35:42.615Z,988.42
2016-11-18T03:36:23.540Z,988.43
2016-11-18T03:37:04.472Z,988.65
2016-11-18T03:37:45.505Z,988.55
2016-11-18T03:38:26.596Z,988.43
2016-11-18T03:39:07.542Z,988.07
2016-11-18T03:39:48.642Z,988.34
2016-11-18T03:40:29.537Z,988.41
2016-11-18T03:41:10.497Z,988.51
2016-11-18T03:41:51.435Z,988.73
2016-11-18T03:42:32.662Z,988.59
2016-11-18T03:43:13.595Z,988.52
2016-11-18T03:43:54.516Z,988.71
2016-11-18T03:44:35.536Z,988.63
2016-11-18T03:45:16.484Z,988.72
2016-11-18T03:45:57.449Z,989.29
2016-11-18T03:46:38.461Z,989.22
2016-11-18T03:47:19.516Z,989.2
2016-11-18T03:48:00.447Z,990.03
2016-11-18T03:48:41.448Z,990.26
2016-11-18T03:49:22.259Z,990.38
2016-11-18T03:50:03.301Z,990.38
2016-11-18T03:50:44.272Z,990.64
2016-11-18T03:51:25.275Z,990.85
2016-11-18T03:52:06.488Z,991.02
2016-11-18T03:52:47.615Z,991.05
2016-11-18T03:53:28.894Z,991.07
2016-11-18T03:54:09.991Z,991.15
2016-11-18T03:54:51.135Z,991.01
2016-11-18T03:55:32.166Z,991.17
2016-11-18T03:56:13.161Z,991.29
2016-11-18T03:56:54.229Z,991.31
2016-11-18T03:57:35.238Z,991.32
2016-11-18T03:58:16.454Z,991.13
2016-11-18T03:58:57.544Z,991.21
2016-11-18T03:59:38.617Z,991.12
2016-11-18T04:00:19.468Z,991.07
2016-11-18T04:01:00.739Z,991.08
2016-11-18T04:01:41.848Z,991.09
2016-11-18T04:02:23.033Z,991.09
2016-11-18T04:03:04.093Z,991.12
2016-11-18T04:03:45.064Z,991.15
2016-11-18T04:04:25.977Z,991.05
2016-11-18T04:05:06.938Z,990.96
2016-11-18T04:05:47.948Z,991.01
2016-11-18T04:06:29.006Z,991.03
2016-11-18T04:07:10.008Z,991.09
2016-11-18T04:07:51.280Z,991.1
2016-11-18T04:08:32.359Z,991.2
2016-11-18T04:09:13.402Z,991.19
2016-11-18T04:09:54.512Z,991.23
2016-11-18T04:10:35.655Z,991.22
2016-11-18T04:11:16.920Z,991.34
2016-11-18T04:11:57.992Z,991.4
2016-11-18T04:12:39.233Z,991.42
2016-11-18T04:13:20.215Z,991.51
2016-11-18T04:14:01.139Z,991.5
2016-11-18T04:14:42.129Z,991.51
2016-11-18T04:15:23.258Z,991.52
2016-11-18T04:16:04.264Z,991.54
2016-11-18T04:16:45.370Z,991.51
2016-11-18T04:17:26.418Z,991.51
2016-11-18T04:18:07.627Z,991.53
2016-11-18T04:18:48.846Z,991.53
2016-11-18T04:19:29.930Z,991.56
2016-11-18T04:20:11.004Z,991.52
2016-11-18T04:20:52.214Z,991.46
2016-11-18T04:21:33.354Z,991.33
2016-11-18T04:22:14.374Z,991.13
2016-11-18T04:22:55.488Z,990.98
2016-11-18T04:23:36.487Z,990.89
2016-11-18T04:24:17.884Z,990.89
2016-11-18T04:24:59.220Z,990.97
2016-11-18T04:25:40.870Z,991.02
2016-11-18T04:26:22.190Z,991.06
2016-11-18T04:27:03.319Z,991.07
2016-11-18T04:27:44.275Z,991.12
2016-11-18T04:28:25.376Z,991.15
2016-11-18T04:29:06.461Z,991.23
2016-11-18T04:29:47.641Z,991.32
2016-11-18T04:30:28.880Z,991.41
2016-11-18T04:31:09.927Z,991.42
2016-11-18T04:31:51.082Z,991.45
2016-11-18T04:32:32.251Z,991.45
2016-11-18T04:33:13.296Z,991.5
2016-11-18T04:33:54.447Z,991.55
2016-11-18T04:34:35.623Z,991.59
2016-11-18T04:35:16.700Z,991.65
2016-11-18T04:35:57.808Z,991.7
2016-11-18T04:36:38.916Z,991.72
2016-11-18T04:37:20.099Z,991.65
2016-11-18T04:38:01.041Z,991.69
2016-11-18T04:38:42.145Z,991.7
2016-11-18T04:39:23.278Z,991.71
2016-11-18T04:40:04.416Z,991.84
2016-11-18T04:40:45.450Z,991.85
2016-11-18T04:41:26.504Z,991.85
2016-11-18T04:42:07.480Z,991.81
2016-11-18T04:42:48.587Z,991.76
2016-11-18T04:43:29.587Z,991.69
2016-11-18T04:44:11.415Z,991.67
2016-11-18T04:44:52.514Z,991.56
2016-11-18T04:45:33.607Z,991.52
2016-11-18T04:46:14.613Z,991.61
2016-11-18T04:46:55.718Z,991.6
2016-11-18T04:47:36.752Z,991.64
2016-11-18T04:48:17.848Z,991.72
2016-11-18T04:48:58.921Z,991.79
2016-11-18T04:49:39.905Z,991.88
2016-11-18T04:50:20.974Z,991.85
2016-11-18T04:51:02.157Z,991.87
2016-11-18T04:51:43.065Z,991.83
2016-11-18T04:52:25.913Z,991.82
2016-11-18T04:53:09.267Z,991.85
2016-11-18T04:53:53.403Z,991.91
2016-11-18T04:54:36.701Z,991.89
2016-11-18T04:55:20.129Z,991.98
2016-11-18T04:56:01.097Z,992.04
2016-11-18T04:56:42.255Z,992.11
2016-11-18T04:57:23.332Z,992.08
2016-11-18T04:58:04.610Z,992.08
2016-11-18T04:58:45.683Z,992.03
2016-11-18T04:59:26.785Z,991.98
2016-11-18T05:00:08.031Z,991.96
2016-11-18T05:00:49.551Z,991.91
2016-11-18T05:01:30.758Z,991.87
2016-11-18T05:02:11.855Z,991.83
2016-11-18T05:02:52.963Z,991.74
2016-11-18T05:03:33.947Z,991.68
2016-11-18T05:04:14.981Z,991.63
2016-11-18T05:04:56.008Z,991.59
2016-11-18T05:05:36.944Z,991.56
2016-11-18T05:06:18.048Z,991.53
2016-11-18T05:06:59.040Z,991.56
2016-11-18T05:07:40.053Z,991.58
2016-11-18T05:08:20.898Z,991.62
2016-11-18T05:09:02.012Z,991.63
2016-11-18T05:09:43.086Z,991.68
2016-11-18T05:10:25.084Z,991.71
2016-11-18T05:11:06.396Z,991.67
2016-11-18T05:11:47.320Z,991.74
2016-11-18T05:12:28.465Z,991.72
2016-11-18T05:14:42.279Z,991.63
2016-11-18T05:15:23.271Z,991.59
2016-11-18T05:16:04.129Z,991.54
2016-11-18T05:16:45.111Z,991.55
2016-11-18T05:17:26.049Z,991.52
2016-11-18T05:18:07.063Z,991.45
2016-11-18T05:18:47.867Z,991.47
2016-11-18T05:19:29.009Z,991.47
2016-11-18T05:20:10.172Z,991.47
2016-11-18T05:20:51.214Z,991.52
2016-11-18T05:21:32.387Z,991.58
2016-11-18T05:22:13.390Z,991.58
2016-11-18T05:22:54.520Z,991.5
2016-11-18T05:23:35.544Z,991.48
2016-11-18T05:24:16.404Z,991.44
2016-11-18T05:24:57.384Z,991.39
2016-11-18T05:25:38.296Z,991.3
2016-11-18T05:26:19.274Z,991.2
2016-11-18T05:27:00.301Z,991.08
2016-11-18T05:27:41.437Z,991.14
2016-11-18T05:28:22.376Z,991.26
2016-11-18T05:29:03.347Z,991.32
2016-11-18T05:29:44.418Z,991.42
2016-11-18T05:30:25.222Z,991.42
2016-11-18T05:31:06.551Z,991.42
2016-11-18T05:31:47.709Z,991.5
2016-11-18T05:32:28.532Z,991.6
2016-11-18T05:33:09.558Z,991.64
2016-11-18T05:33:50.691Z,991.59
2016-11-18T05:34:31.764Z,991.56
2016-11-18T05:35:12.856Z,991.53
2016-11-18T05:35:53.829Z,991.56
2016-11-18T05:36:35.118Z,991.57
2016-11-18T05:37:16.004Z,991.59
2016-11-18T05:37:57.113Z,991.7
2016-11-18T05:38:38.147Z,991.67
2016-11-18T05:39:19.238Z,991.69
2016-11-18T05:40:00.332Z,991.71
2016-11-18T05:40:41.421Z,991.73
2016-11-18T05:41:22.489Z,991.72
2016-11-18T05:42:03.555Z,991.75
2016-11-18T05:42:44.539Z,991.76
2016-11-18T05:43:25.543Z,991.83
2016-11-18T05:44:06.690Z,991.79
2016-11-18T05:44:47.726Z,991.8
2016-11-18T05:45:29.159Z,991.85
2016-11-18T05:46:10.366Z,991.93
2016-11-18T05:46:51.249Z,991.91
2016-11-18T05:47:32.252Z,991.91
2016-11-18T05:48:13.339Z,991.9
2016-11-18T05:48:54.620Z,991.89
2016-11-18T05:49:35.817Z,991.94
2016-11-18T05:50:16.948Z,991.9
2016-11-18T05:50:58.266Z,991.9
2016-11-18T05:51:39.375Z,991.96
2016-11-18T05:52:20.927Z,992.02
2016-11-18T05:53:02.067Z,992.04
2016-11-18T05:53:43.055Z,992.04
2016-11-18T05:54:24.194Z,992.02
2016-11-18T05:55:05.108Z,991.96
2016-11-18T05:55:46.140Z,991.92
2016-11-18T05:56:27.344Z,991.93
2016-11-18T05:57:09.039Z,991.94
2016-11-18T05:57:50.645Z,991.9
2016-11-18T05:58:31.824Z,991.91
2016-11-18T05:59:13.103Z,991.92
2016-11-18T05:59:54.106Z,991.92
2016-11-18T06:00:35.202Z,991.89
2016-11-18T06:01:16.354Z,991.92
2016-11-18T06:01:57.290Z,991.89
2016-11-18T06:02:38.501Z,991.86
2016-11-18T06:03:19.644Z,991.82
2016-11-18T06:04:00.712Z,991.8
2016-11-18T06:04:41.771Z,991.83
2016-11-18T06:05:22.820Z,991.79
2016-11-18T06:06:03.998Z,991.76
2016-11-18T06:06:45.298Z,991.77
2016-11-18T06:07:26.269Z,991.76
2016-11-18T06:08:07.211Z,991.77
2016-11-18T06:08:49.035Z,991.84
2016-11-18T06:09:30.160Z,991.8
2016-11-18T06:10:11.335Z,991.83
2016-11-18T06:10:52.371Z,991.83
2016-11-18T06:11:33.439Z,991.74
2016-11-18T06:12:14.571Z,991.7
2016-11-18T06:12:55.751Z,991.75
2016-11-18T06:13:36.821Z,991.81
2016-11-18T06:14:17.763Z,991.86
2016-11-18T06:14:58.987Z,991.98
2016-11-18T06:15:39.965Z,992.02
2016-11-18T06:16:20.983Z,992.15
2016-11-18T06:17:02.056Z,992.17
2016-11-18T06:17:43.104Z,992.17
2016-11-18T06:18:24.263Z,992.13
2016-11-18T06:19:05.392Z,992.19
2016-11-18T06:19:46.406Z,992.18
2016-11-18T06:20:27.472Z,992.18
2016-11-18T06:21:08.435Z,992.06
2016-11-18T06:21:49.478Z,992.05
2016-11-18T06:22:30.547Z,992.03
2016-11-18T06:23:11.553Z,991.96
2016-11-18T06:23:52.429Z,992
2016-11-18T06:24:33.519Z,992.05
2016-11-18T06:25:14.582Z,992.08
2016-11-18T06:25:55.567Z,992.15
2016-11-18T06:26:36.753Z,992.19
2016-11-18T06:27:17.779Z,992.18
2016-11-18T06:27:58.902Z,992.23
2016-11-18T06:28:39.835Z,992.27
2016-11-18T06:29:24.392Z,992.34
2016-11-18T06:30:10.584Z,992.35
2016-11-18T06:30:52.964Z,992.34
2016-11-18T06:31:34.611Z,992.3
2016-11-18T06:32:16.937Z,992.27
2016-11-18T06:32:57.933Z,992.3
2016-11-18T06:33:43.190Z,992.25
2016-11-18T06:34:24.107Z,992.22
2016-11-18T06:35:05.008Z,992.19
2016-11-18T06:35:46.126Z,992.15
2016-11-18T06:36:27.299Z,992.06
2016-11-18T06:37:08.337Z,991.96
2016-11-18T06:37:49.470Z,991.95
2016-11-18T06:38:30.525Z,991.85
2016-11-18T06:39:11.618Z,991.81
2016-11-18T06:39:52.643Z,991.77
2016-11-18T06:40:33.569Z,991.75
2016-11-18T06:41:14.681Z,991.73
2016-11-18T06:41:55.659Z,991.7
2016-11-18T06:42:36.646Z,991.68
2016-11-18T06:43:17.639Z,991.62
2016-11-18T06:43:58.700Z,991.61
2016-11-18T06:44:39.577Z,991.56
2016-11-18T06:45:20.578Z,991.56
2016-11-18T06:46:01.601Z,991.51
2016-11-18T06:46:42.728Z,991.53
2016-11-18T06:47:23.759Z,991.59
2016-11-18T06:48:04.815Z,991.62
2016-11-18T06:48:45.948Z,991.64
2016-11-18T06:49:27.113Z,991.69
2016-11-18T06:50:08.321Z,991.69
2016-11-18T06:50:49.442Z,991.68
2016-11-18T06:51:30.453Z,991.65
2016-11-18T06:52:11.585Z,991.71
2016-11-18T06:52:52.666Z,991.74
2016-11-18T06:53:33.789Z,991.7
2016-11-18T06:54:14.865Z,991.72
2016-11-18T06:54:55.750Z,991.7
2016-11-18T06:55:36.842Z,991.66
2016-11-18T06:56:17.956Z,991.64
2016-11-18T06:56:59.085Z,991.59
2016-11-18T06:57:40.165Z,991.58
2016-11-18T06:58:22.072Z,991.56
2016-11-18T06:59:03.113Z,991.64
2016-11-18T06:59:44.466Z,991.66
2016-11-18T07:00:25.577Z,991.7
2016-11-18T07:01:06.587Z,991.75
2016-11-18T07:01:47.524Z,991.83
2016-11-18T07:02:28.702Z,991.83
2016-11-18T07:03:09.816Z,991.83
2016-11-18T07:03:50.824Z,991.87
2016-11-18T07:04:32.009Z,991.89
2016-11-18T07:05:13.152Z,991.96
2016-11-18T07:05:54.160Z,991.97
2016-11-18T07:06:35.129Z,991.99
2016-11-18T07:07:16.158Z,991.99
2016-11-18T07:07:57.298Z,992.01
2016-11-18T07:08:38.301Z,991.95
2016-11-18T07:09:19.449Z,991.94
2016-11-18T07:10:00.703Z,991.92
2016-11-18T07:10:41.842Z,991.88
2016-11-18T07:11:22.850Z,991.82
2016-11-18T07:12:03.952Z,991.82
2016-11-18T07:12:45.166Z,991.84
2016-11-18T07:13:26.203Z,991.83
2016-11-18T07:14:07.201Z,991.91
2016-11-18T07:14:48.234Z,991.85
2016-11-18T07:15:29.085Z,991.85
2016-11-18T07:16:10.164Z,991.81
2016-11-18T07:16:50.993Z,991.85
2016-11-18T07:17:31.950Z,991.88
2016-11-18T07:18:12.864Z,991.92
2016-11-18T07:18:53.775Z,991.98
2016-11-18T07:19:34.645Z,992
2016-11-18T07:20:15.640Z,991.97
2016-11-18T07:20:56.783Z,991.96
2016-11-18T07:21:37.763Z,991.91
2016-11-18T07:22:19.005Z,991.87
2016-11-18T07:23:00.011Z,991.86
2016-11-18T07:23:40.931Z,991.82
2016-11-18T07:24:21.953Z,991.88
2016-11-18T07:25:02.930Z,991.94
2016-11-18T07:25:44.009Z,991.97
2016-11-18T07:26:24.910Z,991.97
2016-11-18T07:27:05.885Z,991.98
2016-11-18T07:27:46.747Z,992.02
2016-11-18T07:28:27.731Z,992.09
2016-11-18T07:29:08.839Z,992.14
2016-11-18T07:29:49.881Z,992.11
2016-11-18T07:30:30.800Z,992.1
2016-11-18T07:31:11.745Z,992.14
2016-11-18T07:31:52.693Z,992.16
2016-11-18T07:32:33.688Z,992.27
2016-11-18T07:33:14.695Z,992.26
2016-11-18T07:33:55.757Z,992.29
2016-11-18T07:34:36.809Z,992.32
2016-11-18T07:35:17.730Z,992.38
2016-11-18T07:35:58.659Z,992.41
2016-11-18T07:36:39.684Z,992.43
2016-11-18T07:37:20.726Z,992.39
2016-11-18T07:38:01.666Z,992.45
2016-11-18T07:38:42.750Z,992.48
2016-11-18T07:39:23.766Z,992.47
2016-11-18T07:40:04.757Z,992.44
2016-11-18T07:40:45.650Z,992.41
2016-11-18T07:41:26.609Z,992.38
2016-11-18T07:42:07.539Z,992.38
2016-11-18T07:42:48.487Z,992.37
2016-11-18T07:43:29.445Z,992.32
2016-11-18T07:44:10.506Z,992.32
2016-11-18T07:44:51.501Z,992.29
2016-11-18T07:45:32.431Z,992.36
2016-11-18T07:46:13.524Z,992.35
2016-11-18T07:46:54.557Z,992.38
2016-11-18T07:47:35.467Z,992.45
2016-11-18T07:48:16.448Z,992.38
2016-11-18T07:48:57.485Z,992.37
2016-11-18T07:49:38.428Z,992.4
2016-11-18T07:50:19.463Z,992.44
2016-11-18T07:51:00.446Z,992.44
2016-11-18T07:51:41.380Z,992.43
2016-11-18T07:52:22.438Z,992.36
2016-11-18T07:53:03.320Z,992.34
2016-11-18T07:53:44.368Z,992.28
2016-11-18T07:54:25.261Z,992.27
2016-11-18T07:55:06.131Z,992.28
2016-11-18T07:55:47.132Z,992.33
2016-11-18T07:56:28.015Z,992.37
2016-11-18T07:57:09.114Z,992.38
2016-11-18T07:57:51.096Z,992.41
2016-11-18T07:58:32.158Z,992.48
2016-11-18T07:59:13.214Z,992.47
2016-11-18T07:59:54.275Z,992.49
2016-11-18T08:00:35.402Z,992.5
2016-11-18T08:01:16.461Z,992.49
2016-11-18T08:01:57.314Z,992.45
2016-11-18T08:02:38.246Z,992.45
2016-11-18T08:03:19.207Z,992.46
2016-11-18T08:04:00.263Z,992.4
2016-11-18T08:04:41.228Z,992.42
2016-11-18T08:05:22.271Z,992.36
2016-11-18T08:06:03.250Z,992.35
2016-11-18T08:06:44.161Z,992.4
2016-11-18T08:07:25.128Z,992.46
2016-11-18T08:08:05.902Z,992.48
2016-11-18T08:08:46.855Z,992.48
2016-11-18T08:09:28.001Z,992.48
2016-11-18T08:10:09.309Z,992.43
2016-11-18T08:10:50.495Z,992.39
2016-11-18T08:11:31.717Z,992.35
2016-11-18T08:12:12.949Z,992.38
2016-11-18T08:12:54.039Z,992.37
2016-11-18T08:13:34.957Z,992.36
2016-11-18T08:14:16.040Z,992.37
2016-11-18T08:14:57.323Z,992.38
2016-11-18T08:15:38.257Z,992.38
2016-11-18T08:16:19.255Z,992.35
2016-11-18T08:17:00.190Z,992.4
2016-11-18T08:17:41.258Z,992.4
2016-11-18T08:18:22.220Z,992.44
2016-11-18T08:19:03.276Z,992.43
2016-11-18T08:19:44.338Z,992.41
2016-11-18T08:20:25.280Z,992.38
2016-11-18T08:21:06.283Z,992.42
2016-11-18T08:21:47.386Z,992.34
2016-11-18T08:22:28.431Z,992.35
2016-11-18T08:23:09.526Z,992.3
2016-11-18T08:23:50.646Z,992.27
2016-11-18T08:24:31.585Z,992.24
2016-11-18T08:25:12.734Z,992.27
2016-11-18T08:25:53.904Z,992.26
2016-11-18T08:26:35.009Z,992.36
2016-11-18T08:27:16.260Z,992.34
2016-11-18T08:27:57.423Z,992.33
2016-11-18T08:28:38.507Z,992.31
2016-11-18T08:29:19.605Z,992.37
2016-11-18T08:30:00.781Z,992.35
2016-11-18T08:30:41.790Z,992.32
2016-11-18T08:31:22.916Z,992.33
2016-11-18T08:32:04.047Z,992.36
2016-11-18T08:32:45.017Z,992.33
2016-11-18T08:33:25.986Z,992.4
2016-11-18T08:34:07.201Z,992.45
2016-11-18T08:34:48.324Z,992.49
2016-11-18T08:35:30.202Z,992.53
2016-11-18T08:36:11.113Z,992.61
2016-11-18T08:36:52.102Z,992.66
2016-11-18T08:37:33.169Z,992.67